createdAt,value
2023-01-17T06:01:55.487Z,6.30
2023-01-17T06:06:59.099Z,6.40
2023-01-17T06:12:02.684Z,6.30
2023-01-17T06:17:07.644Z,6.20
2023-01-17T06:27:15.432Z,6.10
2023-01-17T06:32:20.530Z,6.30
2023-01-17T06:37:24.447Z,6.30
2023-01-17T06:42:28.201Z,6.40
2023-01-17T06:47:33.156Z,6.70
2023-01-17T06:52:36.788Z,6.40
2023-01-17T06:57:40.382Z,6.50
2023-01-17T07:02:47.825Z,6.20
2023-01-17T07:07:51.398Z,6.20
2023-01-17T07:12:59.908Z,6.00
2023-01-17T07:18:05.492Z,6.00
2023-01-17T07:28:31.494Z,5.80
2023-01-17T07:33:36.724Z,5.70
2023-01-17T07:38:40.512Z,5.70
2023-01-17T07:43:44.133Z,5.60
2023-01-17T07:48:49.085Z,6.00
2023-01-17T07:58:56.713Z,5.70
2023-01-17T08:04:01.826Z,5.60
2023-01-17T08:09:05.464Z,5.60
2023-01-17T08:14:09.086Z,5.70
2023-01-17T08:19:14.244Z,5.70
2023-01-17T08:24:17.831Z,5.70
2023-01-17T08:29:21.516Z,5.60
2023-01-17T08:34:27.179Z,5.60
2023-01-17T08:39:31.164Z,5.70
2023-01-17T08:44:34.905Z,5.80
2023-01-17T08:49:39.851Z,6.10
2023-01-17T08:59:47.887Z,5.80
2023-01-17T09:04:53.703Z,5.70
2023-01-17T09:09:57.640Z,5.70
2023-01-17T09:15:02.800Z,6.10
2023-01-17T09:20:09.667Z,6.10
2023-01-17T09:25:13.273Z,6.60
2023-01-17T09:30:17.750Z,6.50
2023-01-17T09:35:22.835Z,7.10
2023-01-17T09:45:33.881Z,7.70
2023-01-17T09:50:45.097Z,6.90
2023-01-17T09:55:56.702Z,7.20
2023-01-17T10:01:08.118Z,7.50
2023-01-17T10:06:24.714Z,8.00
2023-01-17T10:11:41.590Z,8.10
2023-01-17T10:16:55.030Z,8.40
2023-01-17T10:22:24.475Z,8.90
2023-01-17T10:27:34.003Z,9.20
2023-01-17T10:32:45.534Z,9.20
2023-01-17T10:37:55.961Z,9.10
2023-01-17T10:43:05.643Z,9.00
2023-01-17T10:48:16.651Z,8.70
2023-01-17T10:53:42.735Z,8.70
2023-01-17T10:58:48.363Z,8.60
2023-01-17T11:03:54.656Z,8.70
2023-01-17T11:09:02.224Z,8.70
2023-01-17T11:14:08.944Z,9.20
2023-01-17T11:19:22.462Z,9.50
2023-01-17T11:24:32.999Z,9.90
2023-01-17T11:29:39.005Z,10.10
2023-01-17T11:34:44.048Z,9.90
2023-01-17T11:39:49.298Z,9.90
2023-01-17T11:44:53.512Z,10.10
2023-01-17T11:50:00.208Z,10.10
2023-01-17T11:55:07.382Z,9.90
2023-01-17T12:00:20.482Z,9.80
2023-01-17T12:05:40.918Z,10.00
2023-01-17T12:10:55.489Z,10.00
2023-01-17T12:16:33.136Z,9.90
2023-01-17T12:21:48.559Z,9.90
2023-01-17T12:27:02.192Z,10.10
2023-01-17T12:32:30.294Z,10.60
2023-01-17T12:37:38.181Z,11.20
2023-01-17T12:42:49.653Z,11.10
2023-01-17T12:47:59.814Z,11.20
2023-01-17T12:53:11.070Z,11.40
2023-01-17T12:58:21.282Z,11.40
2023-01-17T13:03:32.697Z,11.40
2023-01-17T13:08:41.746Z,11.20
2023-01-17T13:13:47.656Z,10.90
2023-01-17T13:18:53.562Z,10.70
2023-01-17T13:24:31.301Z,10.70
2023-01-17T13:29:48.287Z,10.70
2023-01-17T13:35:06.791Z,10.60
2023-01-17T13:40:33.095Z,10.60
2023-01-17T13:45:39.732Z,10.60
2023-01-17T13:50:53.032Z,10.50
2023-01-17T13:56:03.266Z,10.50
2023-01-17T14:01:12.964Z,10.30
2023-01-17T14:06:35.812Z,10.30
2023-01-17T14:11:57.306Z,10.00
2023-01-17T14:17:37.796Z,10.00
2023-01-17T14:22:48.566Z,9.70
2023-01-17T14:27:56.293Z,9.70
2023-01-17T14:33:21.059Z,9.60
2023-01-17T14:38:26.320Z,9.60
2023-01-17T14:43:34.822Z,9.50
2023-01-17T14:48:41.356Z,9.40
2023-01-17T14:53:55.255Z,9.40
2023-01-17T14:59:06.861Z,9.40
2023-01-17T15:04:24.608Z,9.40
2023-01-17T15:09:33.685Z,9.30
2023-01-17T15:14:41.112Z,9.30
2023-01-17T15:19:47.453Z,9.20
2023-01-17T15:24:51.859Z,8.90
2023-01-17T15:29:59.150Z,8.60
2023-01-17T15:35:07.958Z,8.30
2023-01-17T15:40:19.882Z,9.70
2023-01-17T15:45:27.602Z,8.30
2023-01-17T15:50:36.520Z,8.20
2023-01-17T15:55:41.258Z,8.10
2023-01-17T16:00:46.956Z,8.00
2023-01-17T16:05:54.535Z,8.10
2023-01-17T16:11:02.248Z,8.20
2023-01-17T16:16:17.630Z,8.20
2023-01-17T16:21:25.831Z,8.20
2023-01-17T16:26:30.168Z,8.10
2023-01-17T16:31:35.384Z,8.00
2023-01-17T16:36:40.652Z,7.90
2023-01-17T16:41:44.253Z,7.80
2023-01-17T16:46:47.873Z,7.80
2023-01-17T16:51:52.919Z,7.80
2023-01-17T16:56:56.752Z,7.90
2023-01-17T17:02:01.419Z,7.90
2023-01-17T17:07:06.474Z,7.90
2023-01-17T17:12:10.143Z,7.90
2023-01-17T17:17:13.751Z,7.90
2023-01-17T17:22:18.756Z,7.90
2023-01-17T17:27:26.470Z,7.80
2023-01-17T17:32:31.114Z,7.80
2023-01-17T17:37:36.170Z,7.80
2023-01-17T17:42:39.937Z,7.80
2023-01-17T17:47:44.565Z,7.80
2023-01-17T17:52:50.713Z,7.80
2023-01-17T17:57:54.938Z,7.80
2023-01-17T18:02:58.591Z,7.90
2023-01-17T18:08:03.735Z,7.80
2023-01-17T18:13:07.403Z,7.70
2023-01-17T18:18:11.074Z,7.80
2023-01-17T18:23:16.057Z,7.80
2023-01-17T18:28:19.617Z,7.80
2023-01-17T18:33:23.235Z,7.80
2023-01-17T18:38:37.920Z,7.80
2023-01-17T18:43:41.754Z,7.70
2023-01-17T18:48:45.413Z,7.50
2023-01-17T18:53:50.509Z,6.90
2023-01-17T18:58:55.363Z,6.40
2023-01-17T19:04:00.790Z,6.00
2023-01-17T19:09:06.434Z,5.70
2023-01-17T19:14:11.307Z,5.30
2023-01-17T19:19:16.500Z,4.90
2023-01-17T19:24:21.480Z,4.70
2023-01-17T19:29:26.774Z,4.60
2023-01-17T19:34:30.557Z,4.50
2023-01-17T19:39:35.570Z,4.50
2023-01-17T19:44:39.196Z,4.50
2023-01-17T19:49:44.386Z,4.50
2023-01-17T19:54:49.398Z,4.60
2023-01-17T19:59:52.989Z,4.70
2023-01-17T20:04:56.746Z,4.90
2023-01-17T20:10:02.035Z,5.00
2023-01-17T20:15:06.279Z,5.00
2023-01-17T20:20:12.922Z,5.10
2023-01-17T20:25:18.149Z,5.30
2023-01-17T20:30:24.567Z,5.30
2023-01-17T20:35:29.328Z,5.40
2023-01-17T20:40:34.397Z,5.50
2023-01-17T20:45:38.014Z,5.50
2023-01-17T20:50:41.621Z,5.60
2023-01-17T20:55:48.475Z,5.60
2023-01-17T21:00:52.299Z,5.70
2023-01-17T21:06:02.788Z,5.80
2023-01-17T21:11:09.990Z,5.80
2023-01-17T21:16:16.428Z,5.90
2023-01-17T21:21:22.949Z,5.90
2023-01-17T21:26:29.125Z,6.00
2023-01-17T21:31:35.633Z,6.00
2023-01-17T21:36:41.071Z,6.00
2023-01-17T21:41:49.648Z,6.00
2023-01-17T21:46:56.144Z,5.90
2023-01-17T21:52:17.639Z,5.90
2023-01-17T21:57:40.500Z,6.00
2023-01-17T22:02:45.222Z,5.90
2023-01-17T22:08:06.470Z,5.90
2023-01-17T22:13:11.844Z,5.90
2023-01-17T22:18:16.166Z,5.80
2023-01-17T22:23:19.521Z,5.90
2023-01-17T22:28:24.511Z,5.80
2023-01-17T22:33:28.327Z,5.80
2023-01-17T22:38:31.998Z,5.80
2023-01-17T22:43:38.863Z,5.80
2023-01-17T22:48:43.058Z,5.70
2023-01-17T22:53:48.360Z,5.70
2023-01-17T22:58:53.881Z,5.70
2023-01-17T23:03:59.397Z,5.60
2023-01-17T23:09:05.875Z,5.60
2023-01-17T23:14:19.908Z,5.50
2023-01-17T23:19:23.521Z,5.40
2023-01-17T23:24:27.402Z,5.30
2023-01-17T23:29:32.394Z,5.30
